Weather observations for the past three days for
Waterville, Waterville Robert LaFleur Airport
Metric (Imperial)
Date Time (edt) Wind (kph) Vis. (km) Weather Sky Cond. Temperature (ºC) Relative Humidity Wind Chill (°C) Heat Index (°C) Pressure Precipitation (cm)
Air Dwpt 6 hour altimeter (cm) sea level (mb) 1 hr 3 hr 6 hr
Max. Min.
03 01:56 Calm 16.09 Light Rain OVC007 15.6 15 17.8 15.6 96% 76.38 1018.8
03 00:56 Calm 16.09 Overcast FEW007 OVC050 15.6 14.4 93% 76.43 1019.3
02 23:56 Calm 16.09 Overcast SCT009 OVC050 15.6 14.4 93% 76.45 1019.8
02 22:56 Vrbl 6 16.09 Overcast BKN009 OVC055 15.6 13.9 90% 76.5 1020.2
02 21:56 Calm 16.09 Overcast FEW011 BKN055 OVC070 15.6 13.9 90% 76.53 1020.8
02 20:56 Vrbl 7 16.09 Overcast OVC070 16.7 13.3 80% 76.5 1020.4
02 19:56 Calm 16.09 Overcast FEW060 OVC075 17.8 12.8 22.8 17.8 73% 76.53 1020.7
02 18:56 Calm 16.09 Overcast OVC060 18.3 12.2 68% 76.53 1020.9
02 17:56 Vrbl 7 16.09 Overcast OVC055 19.4 12.2 63% 76.56 1021.2
02 16:56 Vrbl 7 16.09 Overcast OVC060 21.1 12.8 59% 76.56 1021.2
02 15:56 Vrbl 7 16.09 Overcast BKN050 OVC070 21.7 11.7 53% 76.61 1021.7
02 14:56 Calm 16.09 Overcast OVC055 22.2 11.7 52% 76.63 1022.0
02 13:56 Calm 16.09 Mostly Cloudy BKN055 22.8 10.6 23.3 13.9 46% 76.63 1021.8
02 12:56 Vrbl 11 16.09 A Few Clouds FEW070 22.8 10.6 46% 76.66 1022.2
02 11:56 Vrbl 7 16.09 Fair CLR 22.8 11.1 48% 76.68 1022.6
02 10:56 SW 6 16.09 Fair CLR 21.1 13.3 61% 76.71 1023.0
02 09:56 S 7 16.09 Fair CLR 18.9 13.3 70% 76.73 1023.4
02 08:56 Calm 16.09 Overcast OVC002 15 13.3 90% 76.71 1023.3
02 07:56 N 9 4.02 Fog/Mist OVC002 13.9 13.9 15 13.3 100% 76.73 1023.5
02 06:56 N 6 0.24 Fog OVC002 13.3 13.3 100% 76.68 1022.9
02 05:56 Calm 16.09 Overcast OVC002 13.9 13.3 96% 76.68 1022.7
02 04:56 Calm 16.09 Overcast OVC004 14.4 13.9 97% 76.68 1022.6
02 03:56 Calm 16.09 Overcast OVC004 14.4 14.4 100% 76.66 1022.5
02 02:56 Calm 16.09 Overcast OVC006 15 14.4 96% 76.63 1022.1
02 01:56 N 6 16.09 Partly Cloudy SCT008 14.4 13.9 18.3 12.8 97% 76.61 1021.6
02 00:56 Calm 16.09 A Few Clouds FEW007 15 14.4 96% 76.58 1021.2
01 23:56 Calm 16.09 Fair CLR 14.4 14.4 100% 76.53 1020.8
01 22:56 Calm 16.09 Fair CLR 15.6 15 96% 76.5 1020.4
01 21:56 Calm 16.09 Fair CLR 15.6 14.4 93% 76.48 1020.1
01 20:56 Calm 16.09 Fair CLR 17.2 15 87% 76.45 1019.9
01 19:56 Vrbl 6 16.09 Fair CLR 18.3 15 25.6 18.3 81% 76.43 1019.3
01 18:56 Calm 16.09 Fair CLR 20.6 13.9 66% 76.4 1019.0
01 17:56 Vrbl 7 16.09 Fair CLR 22.8 13.9 57% 76.35 1018.3
01 16:56 Calm 16.09 A Few Clouds FEW065 23.3 12.2 50% 76.33 1017.9
01 15:56 Calm 16.09 Fair CLR 24.4 10.6 42% 25 76.3 1017.8
01 14:56 Calm 16.09 Fair CLR 24.4 11.1 43% 26 76.33 1018.0
01 13:56 Calm 14.48 A Few Clouds FEW050 22.8 10.6 24.4 14.4 46% 76.33 1017.9
01 12:56 Vrbl 7 16.09 Fair CLR 22.8 11.7 50% 76.33 1018.1
01 10:56 Vrbl 9 16.09 Fair CLR 19.4 11.7 61% 76.38 1018.8
01 09:56 NE 9 16.09 Fair CLR 17.8 11.7 68% 76.4 1019.1
01 08:56 N 13 16.09 Fair CLR 15.6 10.6 72% 76.4 1019.1
01 07:56 N 11 16.09 Fair CLR 14.4 11.1 14.4 10 81% 76.38 1018.9
01 06:56 N 9 16.09 Overcast OVC055 12.2 10 87% 76.35 1018.5
01 05:56 N 9 16.09 A Few Clouds FEW055 10.6 10 96% 76.33 1018.1
01 04:56 NE 7 16.09 Fair CLR 10.6 10 96% 76.33 1018.1
01 03:56 NE 9 16.09 Mostly Cloudy BKN060 11.1 10.6 97% 76.33 1018.0
01 02:56 Calm 16.09 Mostly Cloudy BKN065 10.6 10 96% 76.33 1018.3
01 01:56 Calm 16.09 Fair CLR 11.1 10.6 17.2 10.6 97% 76.35 1018.3
01 00:56 Calm 16.09 Fair CLR 11.1 10 93% 76.35 1018.3
31 23:56 Calm 16.09 Fair CLR 12.8 10.6 87% 76.33 1018.2
31 22:56 SW 6 16.09 Fair CLR 13.9 10.6 81% 76.35 1018.3
31 21:56 SW 6 16.09 Fair CLR 14.4 11.7 84% 76.33 1018.1
31 20:56 Calm 16.09 Fair CLR 16.1 12.2 78% 76.33 1018.0
31 19:56 Calm 16.09 Fair CLR 16.1 12.2 24.4 16.1 78% 76.28 1017.4
31 18:56 Calm 16.09 Fair CLR 20.6 12.2 59% 76.28 1017.4
31 17:56 Calm 16.09 Fair CLR 23.3 10.6 45% 76.28 1017.5
31 16:56 Vrbl 7 16.09 Fair CLR 23.9 10 42% 25 76.3 1017.5
31 15:56 NW 6 16.09 Fair CLR 23.9 9.4 40% 25 76.3 1017.6
31 14:56 S 6 16.09 Fair CLR 22.8 8.9 41% 76.35 1018.3
31 12:56 SW 7 16.09 Fair CLR 21.7 9.4 46% 76.43 1019.3
31 11:56 NW 15 16.09 Fair CLR 20.6 10.6 53% 76.45 1019.6
31 10:56 NW 9 16.09 Fair CLR 19.4 10.6 57% 76.5 1020.3
31 09:56 NW 9 16.09 Fair CLR 17.2 11.1 68% 76.5 1020.3
31 08:56 NW 9 16.09 Fair CLR 16.7 11.1 70% 76.45 1019.7
31 07:56 Vrbl 7 16.09 Fair CLR 15 11.1 15 10.6 78% 76.48 1020.0 0.03
31 06:56 NW 9 16.09 Fair CLR 12.2 10.6 90% 76.43 1019.6
31 05:56 NW 6 16.09 Fair CLR 11.1 10 93% 76.38 1018.8
31 04:56 N 13 16.09 Fair CLR 11.7 10.6 93% 76.33 1018.0 0.03 0.03
31 03:56 NW 7 16.09 Fair CLR 12.2 11.1 93% 76.33 1018.1
31 02:56 NW 9 16.09 Fair CLR 12.8 12.2 96% 76.33 1018.0
Date Time (edt) Wind (kph) Vis. (km) Weather Sky Cond. Air Dwpt Max. Min. Relative Humidity Wind Chill (°C) Heat Index (°C) altimeter (cm) sea level (mb) 1 hr 3 hr 6 hr
6 hour
Temperature (ºC) Pressure Precipitation (cm)